Time;durP1;ratioP1;P1;durP2;ratioP2;P2;SDS_P1;SDS_P2;PMS_P1;PMS_P2;Temp;Humidity;BMP_temperature;BMP_pressure;BME280_temperature;BME280_humidity;BME280_pressure;Samples;Min_cycle;Max_cycle;Signal;HPM_P1;HPM_P2
2021/08/11 00:01:11;;;;;;;;;;;;;;;22.40;56.08;99846.56;4394527;32;35833;-90
2021/08/11 00:03:40;;;;;;;;;;;;;;;22.34;56.26;99849.25;4390259;32;34010;-91
2021/08/11 00:06:08;;;;;;;;;;;;;;;22.25;56.62;99842.44;4417977;32;33610;-89
2021/08/11 00:08:36;;;;;;;;;;;;;;;22.19;56.15;99846.03;4395027;32;35053;-90
2021/08/11 00:11:04;;;;;;;;;;;;;;;21.92;57.82;99853.44;4398665;32;34833;-91
2021/08/11 00:13:33;;;;;;;;;;;;;;;21.82;58.37;99857.69;4416655;32;35007;-90
2021/08/11 00:16:01;;;;;;;;;;;;;;;21.88;57.92;99857.66;4403443;32;34051;-91
2021/08/11 00:18:29;;;;;;;;;;;;;;;22.28;56.37;99855.56;4393934;32;35412;-91
2021/08/11 00:20:56;;;;;;;;;;;;;;;22.43;55.30;99859.69;4404788;32;34601;-91
2021/08/11 00:23:25;;;;;;;;;;;;;;;22.40;55.26;99862.84;4385780;32;34529;-90
2021/08/11 00:25:54;;;;;;;;;;;;;;;22.32;55.44;99865.78;4393043;32;33346;-91
2021/08/11 00:28:22;;;;;;;;;;;;;;;22.28;55.45;99866.41;4405980;32;34035;-92
2021/08/11 00:30:50;;;;;;;;;;;;;;;22.21;55.91;99861.03;4394693;32;35660;-89
2021/08/11 00:33:19;;;;;;;;;;;;;;;22.17;56.02;99867.94;4393066;32;34254;-90
2021/08/11 00:35:48;;;;;;;;;;;;;;;21.75;57.63;99865.00;4390804;32;32410;-90
2021/08/11 00:38:16;;;;;;;;;;;;;;;22.03;56.97;99866.34;4399367;32;35126;-91
2021/08/11 00:40:45;;;;;;;;;;;;;;;22.21;56.26;99863.75;4386250;32;34325;-90
2021/08/11 00:43:13;;;;;;;;;;;;;;;22.21;56.13;99868.31;4390847;32;34860;-90
2021/08/11 00:45:42;;;;;;;;;;;;;;;22.32;56.03;99876.59;4416647;32;33502;-92
2021/08/11 00:48:11;;;;;;;;;;;;;;;22.32;55.95;99879.31;4394016;32;34231;-93
2021/08/11 00:50:39;;;;;;;;;;;;;;;22.30;55.96;99867.03;4406488;32;35722;-90
2021/08/11 00:53:08;;;;;;;;;;;;;;;22.34;55.79;99871.78;4381295;32;35019;-92
2021/08/11 00:55:37;;;;;;;;;;;;;;;22.24;55.83;99871.44;4398718;32;33438;-91
2021/08/11 00:58:09;;;;;;;;;;;;;;;22.27;55.89;99878.31;4404933;32;35022;-92
2021/08/11 01:00:41;;;;;;;;;;;;;;;22.17;56.02;99864.41;4397232;32;35398;-91
2021/08/11 01:03:14;;;;;;;;;;;;;;;22.26;56.40;99868.50;4397008;32;34431;-92
2021/08/11 01:05:43;;;;;;;;;;;;;;;21.91;57.18;99876.16;4393984;32;34130;-91
2021/08/11 01:08:26;;;;;;;;;;;;;;;22.15;56.11;99866.47;4400403;32;35145;-90
2021/08/11 01:10:55;;;;;;;;;;;;;;;22.04;57.01;99861.75;4404427;32;35070;-91
2021/08/11 01:13:24;;;;;;;;;;;;;;;22.22;55.61;99861.84;4398210;32;33056;-91
2021/08/11 01:15:52;;;;;;;;;;;;;;;22.21;55.91;99866.47;4411820;32;33067;-93
2021/08/11 01:18:20;;;;;;;;;;;;;;;21.78;57.92;99872.69;4398903;32;34847;-90
2021/08/11 01:20:50;;;;;;;;;;;;;;;22.13;56.51;99871.28;4384684;32;35844;-95
2021/08/11 01:23:20;;;;;;;;;;;;;;;22.31;55.82;99866.81;4391903;32;34443;-92
2021/08/11 01:25:50;;;;;;;;;;;;;;;22.32;55.68;99867.62;4405118;32;33431;-90
2021/08/11 01:28:27;;;;;;;;;;;;;;;22.28;56.05;99863.72;4405747;32;32973;-92
2021/08/11 01:31:07;;;;;;;;;;;;;;;22.13;56.94;99865.88;4398373;32;35111;-91
2021/08/11 01:33:45;;;;;;;;;;;;;;;22.19;56.54;99867.72;4393645;32;34408;-91
2021/08/11 01:36:20;;;;;;;;;;;;;;;22.14;57.14;99868.38;4404114;32;34452;-90
2021/08/11 01:38:51;;;;;;;;;;;;;;;22.03;56.79;99874.47;4386325;32;35581;-91
2021/08/11 01:41:19;;;;;;;;;;;;;;;22.13;56.39;99871.28;4393245;32;35434;-90
2021/08/11 01:43:51;;;;;;;;;;;;;;;22.07;56.51;99862.16;4413318;32;34175;-90
2021/08/11 01:46:19;;;;;;;;;;;;;;;22.19;56.12;99859.59;4381517;32;32122;-90
2021/08/11 01:48:47;;;;;;;;;;;;;;;21.96;57.40;99856.56;4393784;32;34666;-91
2021/08/11 01:51:17;;;;;;;;;;;;;;;21.89;57.79;99867.44;4408357;32;35895;-90
2021/08/11 01:53:46;;;;;;;;;;;;;;;21.80;57.75;99865.19;4394886;32;34726;-91
2021/08/11 01:56:13;;;;;;;;;;;;;;;21.80;57.77;99866.00;4403273;32;33928;-91
2021/08/11 01:58:42;;;;;;;;;;;;;;;21.86;57.31;99867.88;4398121;32;34672;-90
2021/08/11 02:01:10;;;;;;;;;;;;;;;22.11;56.81;99859.84;4391061;32;35652;-90
2021/08/11 02:03:41;;;;;;;;;;;;;;;21.96;57.18;99865.53;4384059;32;36293;-90
2021/08/11 02:06:10;;;;;;;;;;;;;;;21.94;58.47;99861.38;4391756;32;32221;-90
2021/08/11 02:08:43;;;;;;;;;;;;;;;22.09;57.73;99853.81;4412513;32;34660;-90
2021/08/11 02:11:11;;;;;;;;;;;;;;;22.07;56.93;99859.44;4391723;32;35394;-93
2021/08/11 02:13:40;;;;;;;;;;;;;;;22.04;57.72;99862.59;4400190;32;35347;-92
2021/08/11 02:16:09;;;;;;;;;;;;;;;22.25;57.25;99858.69;4396342;32;33440;-92
2021/08/11 02:18:37;;;;;;;;;;;;;;;22.27;56.68;99860.16;4396580;32;35483;-92
2021/08/11 02:21:06;;;;;;;;;;;;;;;22.22;56.33;99856.44;4403517;32;35591;-90
2021/08/11 02:23:34;;;;;;;;;;;;;;;22.17;56.85;99864.41;4394197;32;34922;-90
2021/08/11 02:26:01;;;;;;;;;;;;;;;22.18;56.87;99853.31;4383912;32;31988;-91
2021/08/11 02:28:47;;;;;;;;;;;;;;;22.18;56.69;99849.81;4390922;32;34623;-91
2021/08/11 02:31:17;;;;;;;;;;;;;;;22.19;56.85;99846.84;4397423;32;35078;-91
2021/08/11 02:34:05;;;;;;;;;;;;;;;22.19;57.20;99840.63;4403914;32;35291;-92
2021/08/11 02:36:34;;;;;;;;;;;;;;;22.28;56.85;99858.28;4392197;32;33236;-90
2021/08/11 02:39:10;;;;;;;;;;;;;;;22.28;56.48;99855.56;4401798;32;34213;-92
2021/08/11 02:41:45;;;;;;;;;;;;;;;22.13;57.53;99855.03;4391559;32;34162;-91
2021/08/11 02:44:17;;;;;;;;;;;;;;;22.11;57.73;99855.22;4398876;32;34316;-90
2021/08/11 02:46:44;;;;;;;;;;;;;;;22.18;57.12;99845.19;4395051;32;32689;-94
2021/08/11 02:49:18;;;;;;;;;;;;;;;22.12;57.33;99848.78;4404474;32;34096;-90
2021/08/11 02:51:46;;;;;;;;;;;;;;;22.17;57.09;99843.53;4399079;32;34085;-90
2021/08/11 02:54:14;;;;;;;;;;;;;;;22.21;56.56;99844.78;4395403;32;35637;-91
2021/08/11 02:56:44;;;;;;;;;;;;;;;22.21;56.42;99852.06;4418056;32;32382;-90
2021/08/11 02:59:14;;;;;;;;;;;;;;;22.23;56.11;99858.09;4392884;32;34676;-93
2021/08/11 03:01:43;;;;;;;;;;;;;;;22.22;56.57;99851.84;4406388;32;35483;-90
2021/08/11 03:04:14;;;;;;;;;;;;;;;22.21;56.35;99852.91;4392703;32;35885;-94
2021/08/11 03:06:42;;;;;;;;;;;;;;;22.22;56.62;99854.56;4405490;32;33019;-91
2021/08/11 03:09:11;;;;;;;;;;;;;;;22.20;56.56;99859.34;4399527;32;35229;-90
2021/08/11 03:11:40;;;;;;;;;;;;;;;22.26;56.21;99857.66;4398823;32;34795;-90
2021/08/11 03:14:11;;;;;;;;;;;;;;;22.17;56.84;99858.97;4398327;32;33955;-91
2021/08/11 03:16:41;;;;;;;;;;;;;;;22.23;56.52;99858.09;4399205;32;33352;-90
2021/08/11 03:19:10;;;;;;;;;;;;;;;21.76;58.73;99858.53;4406732;32;34159;-91
2021/08/11 03:21:38;;;;;;;;;;;;;;;21.84;58.43;99861.00;4393427;32;35089;-91
2021/08/11 03:24:07;;;;;;;;;;;;;;;21.91;58.43;99859.09;4399699;32;35229;-92
2021/08/11 03:26:35;;;;;;;;;;;;;;;22.14;57.78;99862.94;4384166;32;35182;-91
2021/08/11 03:29:20;;;;;;;;;;;;;;;21.97;58.52;99867.19;4391155;32;34843;-90
2021/08/11 03:31:48;;;;;;;;;;;;;;;22.10;58.62;99859.00;4400303;32;35065;-91
2021/08/11 03:34:16;;;;;;;;;;;;;;;22.41;57.74;99864.50;4390966;32;36768;-90
2021/08/11 03:36:45;;;;;;;;;;;;;;;22.45;57.06;99863.00;4399336;32;32576;-90
2021/08/11 03:39:14;;;;;;;;;;;;;;;22.40;57.41;99862.84;4390746;32;34119;-95
2021/08/11 03:41:42;;;;;;;;;;;;;;;22.49;57.75;99863.41;4391866;32;36290;-91
2021/08/11 03:44:10;;;;;;;;;;;;;;;22.54;57.47;99869.81;4394668;32;36269;-90
2021/08/11 03:46:42;;;;;;;;;;;;;;;22.55;57.54;99874.19;4398687;32;33710;-92
2021/08/11 03:49:10;;;;;;;;;;;;;;;22.47;57.47;99877.16;4384657;32;33131;-90
2021/08/11 03:51:40;;;;;;;;;;;;;;;22.36;58.31;99868.88;4367823;32;37112;-90
2021/08/11 03:54:08;;;;;;;;;;;;;;;22.50;58.14;99870.47;4404169;32;34011;-90
2021/08/11 03:56:35;;;;;;;;;;;;;;;22.52;57.75;99874.62;4391930;32;33051;-91
2021/08/11 03:59:05;;;;;;;;;;;;;;;22.51;57.78;99872.97;4405568;32;32824;-91
2021/08/11 04:01:33;;;;;;;;;;;;;;;22.23;59.02;99877.06;4398881;32;35639;-90
2021/08/11 04:04:01;;;;;;;;;;;;;;;22.21;59.15;99884.59;4392850;32;33413;-90
2021/08/11 04:06:28;;;;;;;;;;;;;;;22.42;58.68;99879.72;4404223;32;33628;-92
2021/08/11 04:08:55;;;;;;;;;;;;;;;22.64;58.09;99883.72;4404718;32;34517;-90
2021/08/11 04:11:23;;;;;;;;;;;;;;;22.67;58.25;99887.88;4384639;32;36745;-90
2021/08/11 04:13:50;;;;;;;;;;;;;;;22.46;58.87;99894.47;4404321;32;35461;-89
2021/08/11 04:16:20;;;;;;;;;;;;;;;22.77;57.86;99891.78;4393878;32;35295;-90
2021/08/11 04:18:48;;;;;;;;;;;;;;;22.85;57.24;99888.78;4376032;32;34898;-90
2021/08/11 04:21:15;;;;;;;;;;;;;;;22.60;57.85;99892.50;4385830;32;36699;-91
2021/08/11 04:23:50;;;;;;;;;;;;;;;22.73;58.21;99893.25;4396670;32;34600;-92
2021/08/11 04:26:17;;;;;;;;;;;;;;;22.90;58.13;99896.25;4392014;32;33910;-91
2021/08/11 04:28:45;;;;;;;;;;;;;;;23.00;57.25;99896.59;4397214;32;34769;-90
2021/08/11 04:31:12;;;;;;;;;;;;;;;23.05;57.08;99899.47;4397829;32;36121;-90
2021/08/11 04:33:40;;;;;;;;;;;;;;;23.01;57.10;99892.84;4397725;32;33781;-90
2021/08/11 04:36:09;;;;;;;;;;;;;;;23.02;57.17;99891.78;4396545;32;34400;-90
2021/08/11 04:38:37;;;;;;;;;;;;;;;23.08;57.31;99890.88;4391868;32;32580;-90
2021/08/11 04:41:39;;;;;;;;;;;;;;;23.20;57.19;99900.03;4338528;33;35103;-92
2021/08/11 04:44:10;;;;;;;;;;;;;;;23.34;57.00;99899.69;4335948;32;36205;-89
2021/08/11 04:46:38;;;;;;;;;;;;;;;23.40;57.09;99898.75;4338445;33;33097;-89
2021/08/11 04:49:05;;;;;;;;;;;;;;;23.42;56.72;99907.53;4337812;33;34470;-89
2021/08/11 04:51:33;;;;;;;;;;;;;;;23.46;56.61;99900.59;4337212;33;34732;-90
2021/08/11 04:54:00;;;;;;;;;;;;;;;23.29;56.44;99909.53;4335839;33;36058;-87
2021/08/11 04:56:27;;;;;;;;;;;;;;;22.92;58.28;99924.84;4338545;33;33024;-91
2021/08/11 04:58:54;;;;;;;;;;;;;;;23.10;59.17;99919.47;4338704;33;33685;-88
2021/08/11 05:01:27;;;;;;;;;;;;;;;23.34;58.46;99913.25;4330366;33;34164;-91
2021/08/11 05:03:55;;;;;;;;;;;;;;;23.60;58.03;99910.25;4333313;33;34772;-92
2021/08/11 05:06:22;;;;;;;;;;;;;;;23.57;57.72;99915.31;4338267;33;32403;-92
2021/08/11 05:08:51;;;;;;;;;;;;;;;23.76;57.16;99906.12;4335307;33;34131;-93
2021/08/11 05:11:34;;;;;;;;;;;;;;;23.28;57.56;99918.72;4338550;33;36121;-93
2021/08/11 05:14:04;;;;;;;;;;;;;;;23.73;57.20;99912.84;4337971;33;34360;-93
2021/08/11 05:16:39;;;;;;;;;;;;;;;23.59;57.07;99913.22;4394298;32;34398;-93
2021/08/11 05:19:08;;;;;;;;;;;;;;;23.89;57.13;99918.53;4394526;32;33195;-93
2021/08/11 05:21:37;;;;;;;;;;;;;;;23.89;57.32;99923.16;4397445;32;35424;-93
2021/08/11 05:24:04;;;;;;;;;;;;;;;23.74;56.84;99925.37;4398782;32;33704;-92
2021/08/11 05:26:32;;;;;;;;;;;;;;;23.73;57.05;99922.88;4416867;32;34083;-92
2021/08/11 05:29:19;;;;;;;;;;;;;;;23.90;56.34;99925.63;4390716;32;34628;-93
2021/08/11 05:31:54;;;;;;;;;;;;;;;24.10;56.37;99920.78;4387232;32;36239;-93
2021/08/11 05:34:39;;;;;;;;;;;;;;;23.83;56.86;99921.31;4393019;32;35465;-92
2021/08/11 05:37:26;;;;;;;;;;;;;;;23.94;57.16;99928.72;4393543;32;33811;-92
2021/08/11 05:40:18;;;;;;;;;;;;;;;24.20;56.21;99928.41;4398305;32;34471;-92
2021/08/11 05:42:49;;;;;;;;;;;;;;;24.28;55.86;99926.19;4392807;32;36462;-94
2021/08/11 05:45:17;;;;;;;;;;;;;;;24.33;56.30;99933.66;4398715;32;34798;-92
2021/08/11 05:48:05;;;;;;;;;;;;;;;23.92;56.55;99939.81;4381749;32;32083;-92
2021/08/11 05:50:52;;;;;;;;;;;;;;;24.09;57.14;99942.78;4400759;32;33976;-94
2021/08/11 05:53:20;;;;;;;;;;;;;;;24.27;56.82;99935.41;4392208;32;36112;-94
2021/08/11 05:56:14;;;;;;;;;;;;;;;24.62;56.23;99944.59;4392829;32;35159;-93
2021/08/11 05:58:43;;;;;;;;;;;;;;;24.78;56.43;99938.53;4405521;32;32472;-95
2021/08/11 06:01:12;;;;;;;;;;;;;;;24.86;56.92;99954.53;4393258;32;34606;-92
2021/08/11 06:04:00;;;;;;;;;;;;;;;25.32;55.85;99946.47;4396566;32;34787;-93
2021/08/11 06:06:47;;;;;;;;;;;;;;;25.51;55.68;99950.75;4397616;32;34570;-92
2021/08/11 06:09:32;;;;;;;;;;;;;;;25.30;56.31;99947.78;4393101;32;32613;-91
2021/08/11 06:12:00;;;;;;;;;;;;;;;25.25;55.83;99956.66;4385530;32;34267;-92
2021/08/11 06:14:28;;;;;;;;;;;;;;;25.25;56.42;99945.75;4412086;32;34663;-90
2021/08/11 06:16:58;;;;;;;;;;;;;;;25.34;56.67;99951.69;4398385;32;35564;-90
2021/08/11 06:19:25;;;;;;;;;;;;;;;25.53;56.30;99945.91;4408876;32;32107;-92
2021/08/11 06:21:54;;;;;;;;;;;;;;;25.49;56.80;99946.59;4410241;32;34692;-90
2021/08/11 06:24:23;;;;;;;;;;;;;;;25.79;56.46;99953.59;4384514;32;35818;-90
2021/08/11 06:26:52;;;;;;;;;;;;;;;26.03;54.86;99940.81;4394647;32;34369;-90
2021/08/11 06:29:20;;;;;;;;;;;;;;;26.13;53.99;99941.81;4404434;32;32187;-91
2021/08/11 06:31:50;;;;;;;;;;;;;;;26.68;53.55;99939.44;4397887;32;33498;-92
2021/08/11 06:34:19;;;;;;;;;;;;;;;26.76;52.71;99931.66;4396724;32;35747;-89
2021/08/11 06:36:47;;;;;;;;;;;;;;;26.68;52.32;99940.25;4398241;32;34361;-90
2021/08/11 06:39:19;;;;;;;;;;;;;;;26.69;52.63;99941.09;4388965;32;32625;-89
2021/08/11 06:41:47;;;;;;;;;;;;;;;26.61;52.80;99945.00;4410085;32;34172;-91
2021/08/11 06:44:15;;;;;;;;;;;;;;;26.38;53.07;99938.78;4395137;32;35434;-91
2021/08/11 06:46:43;;;;;;;;;;;;;;;26.27;52.57;99936.94;4395787;32;33558;-91
2021/08/11 06:49:12;;;;;;;;;;;;;;;26.18;52.84;99931.03;4403079;32;33218;-90
2021/08/11 06:51:39;;;;;;;;;;;;;;;26.55;53.03;99932.37;4408495;32;34964;-90
2021/08/11 06:54:10;;;;;;;;;;;;;;;26.70;52.93;99935.38;4417303;32;35114;-93
2021/08/11 06:56:39;;;;;;;;;;;;;;;27.10;50.47;99934.19;4393329;32;34531;-89
2021/08/11 06:59:07;;;;;;;;;;;;;;;27.38;50.19;99944.25;4389343;32;32610;-90
2021/08/11 07:01:37;;;;;;;;;;;;;;;27.21;50.43;99938.78;4395827;32;33343;-91
2021/08/11 07:04:19;;;;;;;;;;;;;;;27.48;49.82;99947.97;4405733;32;34836;-90
2021/08/11 07:06:48;;;;;;;;;;;;;;;27.38;49.79;99950.53;4415828;32;35085;-91
2021/08/11 07:09:18;;;;;;;;;;;;;;;27.52;50.64;99949.13;4414405;32;34465;-91
2021/08/11 07:11:46;;;;;;;;;;;;;;;27.99;49.95;99942.22;4408654;32;33325;-90
2021/08/11 07:14:14;;;;;;;;;;;;;;;27.81;49.23;99945.22;4400985;32;34293;-90
2021/08/11 07:16:42;;;;;;;;;;;;;;;27.42;50.46;99948.13;4406996;32;34754;-91
2021/08/11 07:19:09;;;;;;;;;;;;;;;27.70;49.51;99945.31;4385480;32;34146;-91
2021/08/11 07:21:37;;;;;;;;;;;;;;;28.03;49.06;99948.00;4398260;32;33942;-91
2021/08/11 07:24:05;;;;;;;;;;;;;;;28.14;48.48;99955.25;4379449;32;34587;-91
2021/08/11 07:26:33;;;;;;;;;;;;;;;27.90;49.28;99949.19;4381846;32;34553;-93
2021/08/11 07:29:00;;;;;;;;;;;;;;;28.26;48.45;99948.59;4394526;32;34093;-91
2021/08/11 07:31:28;;;;;;;;;;;;;;;28.34;47.78;99952.81;4396767;32;33696;-92
2021/08/11 07:33:57;;;;;;;;;;;;;;;27.97;48.16;99951.75;4396022;32;35320;-91
2021/08/11 07:36:24;;;;;;;;;;;;;;;28.00;48.10;99949.34;4392979;32;33710;-88
2021/08/11 07:38:52;;;;;;;;;;;;;;;28.59;46.81;99951.19;4409671;32;35151;-92
2021/08/11 07:41:19;;;;;;;;;;;;;;;28.90;46.72;99958.62;4398305;32;33661;-90
2021/08/11 07:43:47;;;;;;;;;;;;;;;29.12;45.62;99945.75;4387570;32;34649;-92
2021/08/11 07:46:14;;;;;;;;;;;;;;;29.26;45.20;99944.22;4409869;32;34791;-91
2021/08/11 07:48:43;;;;;;;;;;;;;;;28.79;46.32;99956.06;4413631;32;33262;-92
2021/08/11 07:51:10;;;;;;;;;;;;;;;28.83;46.54;99955.31;4394912;32;36072;-90
2021/08/11 07:53:38;;;;;;;;;;;;;;;28.97;46.26;99945.59;4395463;32;36418;-91
2021/08/11 07:56:06;;;;;;;;;;;;;;;28.84;46.68;99950.63;4410037;32;34684;-92
2021/08/11 07:58:34;;;;;;;;;;;;;;;29.11;45.64;99951.47;4403912;32;33387;-91
2021/08/11 08:01:01;;;;;;;;;;;;;;;28.82;45.52;99944.59;4399938;32;32911;-91
2021/08/11 08:03:29;;;;;;;;;;;;;;;29.26;45.21;99938.72;4389800;32;34406;-91
2021/08/11 08:05:57;;;;;;;;;;;;;;;29.27;44.17;99940.37;4407411;32;34927;-91
2021/08/11 08:08:25;;;;;;;;;;;;;;;29.39;44.88;99938.31;4396197;32;33088;-91
2021/08/11 08:10:54;;;;;;;;;;;;;;;29.54;42.89;99940.37;4404830;32;36018;-91
2021/08/11 08:13:22;;;;;;;;;;;;;;;29.25;42.35;99944.50;4396965;32;36856;-91
2021/08/11 08:15:53;;;;;;;;;;;;;;;29.41;42.76;99949.84;4391293;32;33647;-91
2021/08/11 08:18:22;;;;;;;;;;;;;;;29.55;42.59;99942.03;4390421;32;33350;-89
2021/08/11 08:20:51;;;;;;;;;;;;;;;29.71;42.54;99941.84;4396582;32;34444;-89
2021/08/11 08:23:19;;;;;;;;;;;;;;;30.07;41.65;99940.19;4395664;32;36767;-90
2021/08/11 08:25:47;;;;;;;;;;;;;;;30.03;40.91;99942.59;4396165;32;36171;-89
2021/08/11 08:28:15;;;;;;;;;;;;;;;29.99;39.58;99938.72;4405747;32;34168;-91
2021/08/11 08:30:45;;;;;;;;;;;;;;;30.38;39.25;99945.53;4388668;32;34735;-90
2021/08/11 08:33:13;;;;;;;;;;;;;;;30.44;39.52;99941.72;4393280;32;34043;-93
2021/08/11 08:35:41;;;;;;;;;;;;;;;30.37;39.22;99945.81;4396492;32;33996;-89
2021/08/11 08:38:09;;;;;;;;;;;;;;;30.54;37.22;99948.06;4396351;32;32925;-90
2021/08/11 08:40:37;;;;;;;;;;;;;;;30.65;36.23;99944.28;4405169;32;34685;-90
2021/08/11 08:43:05;;;;;;;;;;;;;;;30.31;34.22;99944.12;4418096;32;37080;-91
2021/08/11 08:45:34;;;;;;;;;;;;;;;30.72;34.33;99946.78;4389523;32;35269;-87
2021/08/11 08:48:04;;;;;;;;;;;;;;;30.97;30.92;99942.16;4408034;32;34530;-88
2021/08/11 08:50:32;;;;;;;;;;;;;;;30.18;33.15;99953.69;4395389;32;32930;-89
2021/08/11 08:53:00;;;;;;;;;;;;;;;30.70;33.78;99940.72;4403373;32;34855;-88
2021/08/11 08:55:28;;;;;;;;;;;;;;;30.71;33.87;99950.63;4386483;32;35175;-88
2021/08/11 08:57:55;;;;;;;;;;;;;;;31.00;33.87;99954.53;4387385;32;35774;-88
2021/08/11 09:00:23;;;;;;;;;;;;;;;30.69;36.30;99948.13;4388108;32;33597;-89
2021/08/11 09:02:52;;;;;;;;;;;;;;;30.96;33.36;99953.44;4395304;32;35244;-89
2021/08/11 09:05:21;;;;;;;;;;;;;;;31.03;33.61;99956.72;4396422;32;34517;-88
2021/08/11 09:07:48;;;;;;;;;;;;;;;31.06;32.13;99946.00;4394077;32;33188;-92
2021/08/11 09:10:19;;;;;;;;;;;;;;;31.45;30.25;99954.59;4399476;32;34203;-89
2021/08/11 09:13:08;;;;;;;;;;;;;;;31.39;30.60;99952.94;4398382;32;33913;-87
2021/08/11 09:15:37;;;;;;;;;;;;;;;31.35;31.41;99947.16;4392431;32;34423;-88
2021/08/11 09:18:09;;;;;;;;;;;;;;;31.06;30.32;99950.69;4396722;32;32828;-87
2021/08/11 09:20:38;;;;;;;;;;;;;;;31.09;30.70;99945.47;4389371;32;35129;-89
2021/08/11 09:23:05;;;;;;;;;;;;;;;31.33;31.33;99948.53;4395139;32;36615;-87
2021/08/11 09:25:33;;;;;;;;;;;;;;;31.45;31.26;99951.84;4407853;32;34652;-90
2021/08/11 09:28:01;;;;;;;;;;;;;;;31.18;31.61;99951.28;4411388;32;34040;-89
2021/08/11 09:30:31;;;;;;;;;;;;;;;31.54;32.46;99948.22;4394649;32;35172;-89
2021/08/11 09:33:02;;;;;;;;;;;;;;;31.61;33.02;99956.22;4416851;32;35213;-87
2021/08/11 09:35:31;;;;;;;;;;;;;;;31.49;34.44;99953.75;4394983;32;34340;-89
2021/08/11 09:37:59;;;;;;;;;;;;;;;31.64;31.94;99948.22;4410702;32;32432;-91
2021/08/11 09:40:28;;;;;;;;;;;;;;;31.61;33.19;99953.47;4386790;32;33496;-91
2021/08/11 09:43:06;;;;;;;;;;;;;;;31.46;33.45;99958.97;4403684;32;35830;-90
2021/08/11 09:45:50;;;;;;;;;;;;;;;31.64;31.34;99955.66;4403537;32;33712;-91
2021/08/11 09:48:22;;;;;;;;;;;;;;;31.97;31.87;99963.31;4405066;32;32675;-91
2021/08/11 09:50:53;;;;;;;;;;;;;;;31.90;31.93;99960.06;4381671;32;33569;-93
2021/08/11 09:53:26;;;;;;;;;;;;;;;32.13;32.90;99959.44;4386294;32;37174;-91
2021/08/11 09:56:02;;;;;;;;;;;;;;;32.23;32.26;99957.53;4388731;32;35173;-92
2021/08/11 09:58:32;;;;;;;;;;;;;;;32.00;35.13;99957.28;4354587;32;830729;-92
2021/08/11 10:01:01;;;;;;;;;;;;;;;32.30;33.38;99955.28;4403298;32;34657;-92
2021/08/11 10:03:31;;;;;;;;;;;;;;;32.42;34.83;99960.47;4397040;32;37141;-90
2021/08/11 10:06:00;;;;;;;;;;;;;;;32.64;33.22;99958.16;4400205;32;33855;-92
2021/08/11 10:08:32;;;;;;;;;;;;;;;32.47;33.67;99961.25;4405572;32;33183;-90
2021/08/11 10:11:00;;;;;;;;;;;;;;;32.40;32.23;99959.94;4405181;32;34551;-90
2021/08/11 10:13:28;;;;;;;;;;;;;;;32.50;32.21;99960.72;4395843;32;35074;-91
2021/08/11 10:15:56;;;;;;;;;;;;;;;32.61;31.67;99961.47;4397015;32;34044;-91
2021/08/11 10:18:25;;;;;;;;;;;;;;;32.65;30.77;99957.88;4392256;32;32850;-91
2021/08/11 10:20:59;;;;;;;;;;;;;;;32.74;32.21;99958.94;4383039;32;34723;-91
2021/08/11 10:23:27;;;;;;;;;;;;;;;32.77;31.07;99955.66;4391987;32;34763;-90
2021/08/11 10:25:54;;;;;;;;;;;;;;;32.72;31.07;99960.38;4384210;32;34291;-89
2021/08/11 10:28:23;;;;;;;;;;;;;;;32.78;30.89;99964.72;4415672;32;34134;-89
2021/08/11 10:30:51;;;;;;;;;;;;;;;33.06;30.76;99964.81;4393346;32;34292;-88
2021/08/11 10:33:19;;;;;;;;;;;;;;;32.91;32.24;99964.09;4387306;32;34394;-88
2021/08/11 10:35:47;;;;;;;;;;;;;;;32.82;33.15;99965.81;4396665;32;34342;-89
2021/08/11 10:38:15;;;;;;;;;;;;;;;32.75;32.04;99960.59;4392720;32;34055;-88
2021/08/11 10:40:49;;;;;;;;;;;;;;;33.14;31.89;99964.22;4413444;32;33955;-89
2021/08/11 10:43:17;;;;;;;;;;;;;;;32.96;32.85;99953.88;4394562;32;34448;-87
2021/08/11 10:45:51;;;;;;;;;;;;;;;32.93;32.58;99959.12;4393669;32;35044;-88
2021/08/11 10:48:19;;;;;;;;;;;;;;;32.94;32.44;99969.03;4383866;32;31731;-88
2021/08/11 10:50:47;;;;;;;;;;;;;;;33.29;33.73;99957.81;4405725;32;34523;-89
2021/08/11 10:53:14;;;;;;;;;;;;;;;33.40;33.03;99957.41;4387841;32;36070;-89
2021/08/11 10:55:46;;;;;;;;;;;;;;;33.08;31.76;99961.75;4388903;32;35348;-90
2021/08/11 10:58:33;;;;;;;;;;;;;;;33.12;32.22;99965.63;4402458;32;32741;-89
2021/08/11 11:01:01;;;;;;;;;;;;;;;33.55;31.16;99957.28;4388025;32;35359;-90
2021/08/11 11:03:48;;;;;;;;;;;;;;;33.62;31.55;99952.25;4401312;32;36457;-89
2021/08/11 11:06:21;;;;;;;;;;;;;;;33.85;32.40;99957.03;4385882;32;33568;-88
2021/08/11 11:08:49;;;;;;;;;;;;;;;34.36;31.35;99958.13;4395407;32;34564;-88
2021/08/11 11:11:28;;;;;;;;;;;;;;;34.26;30.64;99959.06;4390209;32;34108;-91
2021/08/11 11:14:05;;;;;;;;;;;;;;;34.77;30.70;99957.34;4408739;32;35007;-89
2021/08/11 11:16:55;;;;;;;;;;;;;;;35.28;29.70;99955.47;4392374;32;33468;-89
2021/08/11 11:19:24;;;;;;;;;;;;;;;35.63;28.53;99949.34;4388806;32;33720;-91
2021/08/11 11:21:51;;;;;;;;;;;;;;;35.92;29.07;99955.47;4418090;32;34155;-88
2021/08/11 11:24:38;;;;;;;;;;;;;;;36.27;27.19;99962.28;4401916;32;36304;-86
2021/08/11 11:27:26;;;;;;;;;;;;;;;35.92;27.13;99955.47;4389115;32;33993;-89
2021/08/11 11:29:54;;;;;;;;;;;;;;;36.88;27.79;99960.69;4414480;32;35025;-88
2021/08/11 11:32:24;;;;;;;;;;;;;;;36.91;25.26;99950.94;4413696;32;34467;-89
2021/08/11 11:35:12;;;;;;;;;;;;;;;37.34;24.65;99944.62;4401917;32;35924;-88
2021/08/11 11:37:40;;;;;;;;;;;;;;;37.40;25.34;99950.88;4398675;32;33914;-87
2021/08/11 11:40:08;;;;;;;;;;;;;;;37.65;24.71;99943.56;4396454;32;32577;-90
2021/08/11 11:42:40;;;;;;;;;;;;;;;38.20;24.32;99941.22;4410657;32;34220;-90
2021/08/11 11:45:14;;;;;;;;;;;;;;;38.18;23.92;99936.03;4388552;32;34854;-90
2021/08/11 11:47:42;;;;;;;;;;;;;;;38.48;25.56;99926.00;4382740;32;33508;-89
2021/08/11 11:50:23;;;;;;;;;;;;;;;38.09;24.21;99926.81;4413698;32;33006;-88
2021/08/11 11:52:56;;;;;;;;;;;;;;;38.09;24.27;99924.06;4392685;32;35110;-89
2021/08/11 11:55:26;;;;;;;;;;;;;;;38.41;23.28;99920.91;4401502;32;35019;-88
2021/08/11 11:57:56;;;;;;;;;;;;;;;38.30;23.90;99930.66;4392303;32;33558;-88
2021/08/11 12:00:26;;;;;;;;;;;;;;;38.68;22.99;99937.31;4405476;32;33892;-88
2021/08/11 12:02:55;;;;;;;;;;;;;;;38.56;22.40;99927.97;4372819;32;34453;-89
2021/08/11 12:05:24;;;;;;;;;;;;;;;38.80;22.63;99931.16;4395234;32;34863;-89
2021/08/11 12:07:51;;;;;;;;;;;;;;;39.16;23.31;99917.72;4393867;32;34909;-91
2021/08/11 12:10:25;;;;;;;;;;;;;;;38.10;21.81;99911.78;4397655;32;34030;-90
2021/08/11 12:12:55;;;;;;;;;;;;;;;38.67;23.21;99921.78;4396250;32;34541;-88
2021/08/11 12:15:32;;;;;;;;;;;;;;;38.57;22.17;99921.25;4393733;32;36082;-89
2021/08/11 12:18:19;;;;;;;;;;;;;;;39.09;22.51;99929.38;4388769;32;35429;-89
2021/08/11 12:20:48;;;;;;;;;;;;;;;39.06;21.62;99918.06;4389276;32;33291;-91
2021/08/11 12:23:18;;;;;;;;;;;;;;;38.96;22.91;99929.53;4402829;32;34114;-90
2021/08/11 12:25:48;;;;;;;;;;;;;;;38.26;22.00;99923.28;4405071;32;35248;-92
2021/08/11 12:28:20;;;;;;;;;;;;;;;37.94;23.45;99918.09;4386650;32;35640;-90
2021/08/11 12:30:52;;;;;;;;;;;;;;;37.94;22.81;99921.69;4395412;32;33465;-90
2021/08/11 12:33:20;;;;;;;;;;;;;;;37.84;24.05;99915.59;4393120;32;34434;-90
2021/08/11 12:35:50;;;;;;;;;;;;;;;38.20;24.63;99914.28;4407786;32;34741;-90
2021/08/11 12:38:28;;;;;;;;;;;;;;;38.46;22.82;99908.81;4413095;32;34102;-90
2021/08/11 12:40:57;;;;;;;;;;;;;;;37.88;23.21;99911.84;4397032;32;32986;-90
2021/08/11 12:43:34;;;;;;;;;;;;;;;38.36;22.61;99904.38;4395247;32;34241;-92
2021/08/11 12:46:05;;;;;;;;;;;;;;;38.50;23.39;99907.03;4413461;32;35337;-91
2021/08/11 12:48:33;;;;;;;;;;;;;;;38.47;23.69;99908.50;4384245;32;34866;-90
2021/08/11 12:51:02;;;;;;;;;;;;;;;37.73;23.66;99908.63;4397427;32;32546;-89
2021/08/11 12:53:32;;;;;;;;;;;;;;;37.84;23.81;99902.50;4393955;32;33239;-89
2021/08/11 12:56:11;;;;;;;;;;;;;;;37.82;24.57;99901.16;4397727;32;35022;-90
2021/08/11 12:58:58;;;;;;;;;;;;;;;37.74;23.36;99902.78;4388639;32;33943;-90
2021/08/11 13:01:42;;;;;;;;;;;;;;;37.99;25.05;99895.72;4408152;32;34345;-89
2021/08/11 13:04:23;;;;;;;;;;;;;;;37.85;25.65;99903.31;4401601;32;33289;-89
2021/08/11 13:06:51;;;;;;;;;;;;;;;37.90;25.14;99895.66;4391705;32;34635;-89